createdAt,value
2019-02-22T00:00:29.786Z,83.40
2019-02-22T00:02:57.422Z,83.40
2019-02-22T00:05:25.001Z,82.70
2019-02-22T00:07:53.354Z,82.60
2019-02-22T00:10:20.977Z,82.50
2019-02-22T00:12:48.578Z,82.60
2019-02-22T00:15:16.197Z,82.80
2019-02-22T00:17:43.801Z,82.30
2019-02-22T00:20:11.389Z,82.40
2019-02-22T00:22:39.770Z,83.20
2019-02-22T00:25:07.358Z,83.20
2019-02-22T00:27:34.987Z,82.60
2019-02-22T00:30:02.581Z,82.80
2019-02-22T00:32:30.174Z,82.90
2019-02-22T00:35:00.544Z,83.10
2019-02-22T00:37:28.152Z,83.20
2019-02-22T00:39:56.542Z,83.30
2019-02-22T00:42:24.171Z,83.20
2019-02-22T00:44:51.811Z,83.40
2019-02-22T00:47:19.459Z,83.60
2019-02-22T00:49:47.741Z,84.10
2019-02-22T00:52:15.362Z,84.10
2019-02-22T00:54:42.940Z,84.30
2019-02-22T00:57:10.530Z,84.50
2019-02-22T00:59:38.139Z,84.90
2019-02-22T01:02:05.732Z,85.10
2019-02-22T01:04:33.337Z,85.20
2019-02-22T01:07:01.701Z,85.60
2019-02-22T01:09:30.065Z,85.60
2019-02-22T01:11:57.680Z,85.60
2019-02-22T01:14:25.252Z,85.10
2019-02-22T01:16:52.880Z,85.10
2019-02-22T01:19:20.901Z,85.40
2019-02-22T01:21:48.493Z,85.60
2019-02-22T01:24:16.178Z,85.70
2019-02-22T01:26:43.685Z,85.80
2019-02-22T01:29:11.298Z,85.70
2019-02-22T01:31:38.885Z,85.80
2019-02-22T01:34:06.473Z,86.10
2019-02-22T01:36:34.055Z,86.30
2019-02-22T01:39:01.666Z,86.40
2019-02-22T01:41:29.259Z,86.60
2019-02-22T01:43:56.845Z,87.60
2019-02-22T01:46:24.470Z,86.90
2019-02-22T01:48:52.051Z,87.00
2019-02-22T01:51:19.640Z,87.10
2019-02-22T01:53:47.254Z,87.40
2019-02-22T01:56:14.844Z,87.60
2019-02-22T01:58:48.741Z,87.90
2019-02-22T02:01:10.099Z,88.00
2019-02-22T02:03:37.670Z,88.00
2019-02-22T02:06:06.197Z,88.10
2019-02-22T02:08:33.830Z,88.00
2019-02-22T02:11:02.167Z,87.80
2019-02-22T02:13:29.759Z,87.70
2019-02-22T02:15:57.376Z,87.20
2019-02-22T02:18:24.957Z,87.00
2019-02-22T02:20:52.623Z,86.80
2019-02-22T02:23:20.223Z,85.80
2019-02-22T02:25:47.841Z,85.20
2019-02-22T02:28:15.461Z,85.60
2019-02-22T02:30:43.788Z,86.10
2019-02-22T02:33:11.410Z,86.10
2019-02-22T02:35:39.804Z,86.60
2019-02-22T02:38:07.401Z,86.60
2019-02-22T02:40:35.079Z,86.80
2019-02-22T02:43:02.618Z,86.90
2019-02-22T02:45:30.206Z,86.80
2019-02-22T02:47:58.115Z,87.00
2019-02-22T02:50:25.707Z,86.40
2019-02-22T02:52:53.369Z,86.40
2019-02-22T02:55:24.061Z,86.40
2019-02-22T02:57:51.637Z,86.70
2019-02-22T03:00:19.251Z,86.80
2019-02-22T03:02:47.600Z,86.80
2019-02-22T03:05:15.223Z,87.50
2019-02-22T03:07:42.823Z,87.00
2019-02-22T03:10:10.407Z,87.30
2019-02-22T03:12:38.828Z,87.40
2019-02-22T03:15:06.380Z,87.40
2019-02-22T03:17:34.004Z,87.30
2019-02-22T03:20:01.580Z,87.30
2019-02-22T03:22:29.170Z,87.10
2019-02-22T03:24:56.780Z,87.10
2019-02-22T03:27:24.365Z,87.10
2019-02-22T03:29:52.745Z,87.10
2019-02-22T03:32:20.334Z,87.10
2019-02-22T03:34:47.976Z,87.10
2019-02-22T03:37:15.515Z,87.30
2019-02-22T03:39:43.100Z,87.40
2019-02-22T03:42:10.737Z,87.60
2019-02-22T03:44:38.316Z,87.90
2019-02-22T03:47:06.668Z,88.40
2019-02-22T03:49:34.287Z,88.30
2019-02-22T03:52:01.878Z,88.40
2019-02-22T03:54:29.487Z,88.70
2019-02-22T03:56:57.077Z,87.80
2019-02-22T03:59:24.725Z,87.60
2019-02-22T04:01:52.304Z,87.60
2019-02-22T04:04:19.895Z,87.80
2019-02-22T04:06:47.505Z,88.00
2019-02-22T04:09:15.460Z,88.00
2019-02-22T04:11:45.968Z,87.80
2019-02-22T04:14:11.465Z,87.70
2019-02-22T04:16:39.019Z,87.70
2019-02-22T04:19:06.633Z,88.00
2019-02-22T04:21:34.231Z,87.50
2019-02-22T04:24:01.859Z,87.60
2019-02-22T04:26:29.441Z,88.10
2019-02-22T04:28:57.037Z,87.40
2019-02-22T04:31:24.673Z,88.00
2019-02-22T04:33:52.266Z,87.30
2019-02-22T04:36:19.951Z,87.60
2019-02-22T04:38:47.492Z,87.80
2019-02-22T04:41:15.078Z,88.10
2019-02-22T04:43:43.472Z,88.70
2019-02-22T04:46:11.060Z,88.60
2019-02-22T04:48:38.695Z,87.90
2019-02-22T04:51:06.300Z,87.60
2019-02-22T04:53:33.881Z,87.60
2019-02-22T04:56:01.496Z,87.50
2019-02-22T04:58:29.068Z,87.50
2019-02-22T05:00:56.698Z,87.50
2019-02-22T05:03:25.047Z,88.10
2019-02-22T05:05:52.620Z,88.00
2019-02-22T05:08:20.241Z,88.30
2019-02-22T05:10:47.840Z,88.50
2019-02-22T05:13:15.451Z,88.90
2019-02-22T05:15:43.032Z,89.30
2019-02-22T05:18:10.613Z,89.80
2019-02-22T05:20:38.227Z,89.80
2019-02-22T05:23:07.533Z,89.40
2019-02-22T05:25:33.879Z,89.30
2019-02-22T05:28:01.462Z,89.10
2019-02-22T05:30:29.042Z,88.90
2019-02-22T05:32:56.671Z,88.80
2019-02-22T05:35:24.242Z,88.70
2019-02-22T05:37:51.865Z,88.20
2019-02-22T05:40:19.460Z,88.40
2019-02-22T05:42:47.053Z,88.70
2019-02-22T05:45:14.662Z,89.00
2019-02-22T05:47:42.271Z,89.50
2019-02-22T05:50:09.861Z,90.20
2019-02-22T05:52:38.603Z,89.60
2019-02-22T05:55:06.204Z,90.10
2019-02-22T05:57:34.959Z,90.00
2019-02-22T06:00:02.554Z,90.00
2019-02-22T06:02:33.605Z,90.20
2019-02-22T06:04:58.336Z,90.30
2019-02-22T06:07:26.652Z,90.50
2019-02-22T06:09:54.277Z,90.50
2019-02-22T06:12:21.870Z,90.20
2019-02-22T06:14:49.482Z,90.20
2019-02-22T06:17:17.073Z,90.10
2019-02-22T06:19:44.662Z,90.20
2019-02-22T06:22:12.276Z,90.30
2019-02-22T06:24:39.865Z,90.60
2019-02-22T06:27:07.477Z,90.40
2019-02-22T06:29:35.055Z,90.00
2019-02-22T06:32:02.640Z,90.00
2019-02-22T06:34:30.252Z,90.00
2019-02-22T06:37:02.156Z,90.00
2019-02-22T06:39:26.268Z,90.00
2019-02-22T06:41:53.843Z,90.00
2019-02-22T06:44:21.439Z,90.10
2019-02-22T06:46:49.803Z,89.80
2019-02-22T06:49:18.159Z,90.00
2019-02-22T06:51:45.770Z,90.00
2019-02-22T06:54:13.354Z,90.10
2019-02-22T06:56:40.945Z,90.50
2019-02-22T06:59:08.596Z,90.20
2019-02-22T07:01:36.147Z,90.30
2019-02-22T07:04:03.770Z,90.30
2019-02-22T07:06:31.345Z,90.40
2019-02-22T07:08:58.926Z,90.60
2019-02-22T07:11:26.537Z,90.70
2019-02-22T07:13:54.921Z,90.90
2019-02-22T07:16:22.513Z,90.90
2019-02-22T07:18:50.094Z,91.10
2019-02-22T07:21:17.673Z,91.50
2019-02-22T07:23:45.281Z,91.20
2019-02-22T07:26:12.879Z,91.10
2019-02-22T07:28:40.496Z,91.00
2019-02-22T07:31:08.845Z,91.00
2019-02-22T07:33:42.370Z,91.00
2019-02-22T07:36:10.742Z,91.00
2019-02-22T07:38:38.402Z,91.00
2019-02-22T07:41:05.963Z,91.00
2019-02-22T07:43:33.546Z,91.00
2019-02-22T07:46:01.896Z,90.80
2019-02-22T07:48:29.517Z,90.80
2019-02-22T07:50:58.485Z,90.70
2019-02-22T07:53:24.735Z,90.70
2019-02-22T07:55:52.327Z,90.40
2019-02-22T07:58:19.907Z,90.00
2019-02-22T08:00:47.511Z,89.30
2019-02-22T08:03:15.095Z,89.20
2019-02-22T08:05:42.729Z,89.60
2019-02-22T08:08:10.315Z,89.90
2019-02-22T08:10:37.898Z,90.10
2019-02-22T08:13:05.862Z,90.20
2019-02-22T08:15:35.333Z,90.30
2019-02-22T08:18:01.068Z,90.40
2019-02-22T08:20:28.685Z,90.40
2019-02-22T08:22:57.123Z,90.00
2019-02-22T08:25:24.664Z,90.20
2019-02-22T08:27:54.054Z,90.10
2019-02-22T08:30:19.853Z,90.10
2019-02-22T08:32:54.334Z,90.20
2019-02-22T08:35:21.907Z,90.20
2019-02-22T08:37:49.531Z,89.60
2019-02-22T08:40:18.480Z,89.50
2019-02-22T08:42:46.118Z,89.60
2019-02-22T08:45:13.699Z,89.60
2019-02-22T08:47:41.290Z,89.60
2019-02-22T08:50:09.636Z,89.70
2019-02-22T08:52:37.257Z,90.10
2019-02-22T08:55:05.352Z,88.90
2019-02-22T08:57:32.941Z,88.80
2019-02-22T09:00:00.637Z,88.70
2019-02-22T09:02:28.222Z,88.70
2019-02-22T09:04:55.808Z,88.50
2019-02-22T09:07:23.436Z,88.40
2019-02-22T09:09:51.023Z,88.20
2019-02-22T09:12:18.604Z,88.30
2019-02-22T09:14:47.003Z,87.80
2019-02-22T09:17:15.371Z,87.90
2019-02-22T09:19:42.953Z,87.30
2019-02-22T09:22:19.702Z,86.30
2019-02-22T09:24:39.710Z,86.20
2019-02-22T09:27:07.284Z,86.20
2019-02-22T09:29:34.899Z,86.00
2019-02-22T09:32:02.483Z,85.90
2019-02-22T09:34:30.138Z,85.70
2019-02-22T09:36:57.740Z,85.40
2019-02-22T09:39:25.334Z,85.50
2019-02-22T09:41:52.948Z,85.50
2019-02-22T09:44:21.306Z,84.60
2019-02-22T09:46:49.404Z,85.30
2019-02-22T09:49:16.983Z,84.60
2019-02-22T09:51:44.565Z,84.70
2019-02-22T09:54:12.192Z,84.70
2019-02-22T09:56:39.783Z,84.40
2019-02-22T09:59:07.427Z,84.40
2019-02-22T10:01:35.018Z,84.20
2019-02-22T10:04:02.625Z,84.10
2019-02-22T10:06:30.244Z,84.00
2019-02-22T10:08:57.838Z,83.50
2019-02-22T10:11:25.857Z,83.40
2019-02-22T10:13:53.414Z,83.40
2019-02-22T10:16:21.016Z,83.30
2019-02-22T10:18:48.620Z,83.30
2019-02-22T10:21:16.975Z,83.40
2019-02-22T10:23:44.635Z,83.30
2019-02-22T10:26:12.196Z,83.30
2019-02-22T10:28:39.807Z,83.40
2019-02-22T10:31:07.422Z,83.40
2019-02-22T10:33:36.953Z,82.90
2019-02-22T10:36:04.239Z,83.20
2019-02-22T10:38:34.945Z,83.20
2019-02-22T10:40:59.441Z,83.20
2019-02-22T10:43:27.863Z,83.60
2019-02-22T10:45:55.446Z,83.50
2019-02-22T10:48:23.141Z,83.50
2019-02-22T10:50:51.493Z,83.40
2019-02-22T10:53:19.272Z,83.30
2019-02-22T10:55:46.860Z,83.10
2019-02-22T10:58:14.442Z,83.20
2019-02-22T11:00:42.083Z,83.20
2019-02-22T11:03:10.533Z,83.40
2019-02-22T11:05:38.028Z,83.30
2019-02-22T11:08:05.638Z,84.20
2019-02-22T11:10:33.439Z,83.60
2019-02-22T11:13:02.108Z,83.50
2019-02-22T11:15:29.693Z,83.30
2019-02-22T11:17:57.283Z,83.10
2019-02-22T11:20:24.900Z,83.00
2019-02-22T11:22:52.493Z,83.20
2019-02-22T11:25:20.446Z,83.40
2019-02-22T11:27:48.029Z,83.50
2019-02-22T11:30:15.613Z,83.30
2019-02-22T11:32:43.406Z,84.00
2019-02-22T11:35:11.000Z,83.30
2019-02-22T11:37:39.779Z,83.10
2019-02-22T11:40:11.070Z,83.40
2019-02-22T11:42:38.670Z,83.10
2019-02-22T11:45:06.283Z,83.10
2019-02-22T11:47:33.863Z,83.00
2019-02-22T11:50:01.491Z,82.80
2019-02-22T11:52:29.110Z,82.70
2019-02-22T11:54:56.727Z,82.50
2019-02-22T11:57:24.327Z,82.30
2019-02-22T11:59:51.922Z,82.40
2019-02-22T12:02:20.240Z,82.30
2019-02-22T12:04:47.821Z,82.00
2019-02-22T12:07:15.694Z,81.70
2019-02-22T12:09:43.312Z,81.60
2019-02-22T12:12:10.929Z,81.50
2019-02-22T12:14:38.535Z,81.50
2019-02-22T12:17:06.889Z,81.60
2019-02-22T12:19:34.499Z,81.50
2019-02-22T12:22:02.135Z,80.90
2019-02-22T12:24:30.492Z,80.60
2019-02-22T12:26:58.213Z,80.50
2019-02-22T12:29:25.771Z,79.80
2019-02-22T12:31:53.357Z,79.50
2019-02-22T12:34:20.971Z,79.00
2019-02-22T12:36:48.576Z,78.70
2019-02-22T12:39:16.781Z,78.30
2019-02-22T12:41:44.359Z,78.30
2019-02-22T12:44:11.958Z,78.30
2019-02-22T12:46:39.556Z,78.50
2019-02-22T12:49:07.145Z,78.30
2019-02-22T12:51:35.921Z,77.80
2019-02-22T12:54:03.507Z,77.80
2019-02-22T12:56:56.114Z,77.60
2019-02-22T12:58:58.705Z,77.20
2019-02-22T13:01:26.292Z,76.90
2019-02-22T13:03:54.743Z,76.10
2019-02-22T13:06:22.557Z,76.00
2019-02-22T13:08:51.769Z,75.70
2019-02-22T13:11:19.339Z,75.50
2019-02-22T13:13:46.933Z,75.30
2019-02-22T13:16:14.545Z,75.20
2019-02-22T13:18:42.162Z,74.90
2019-02-22T13:21:09.752Z,74.40
2019-02-22T13:23:38.121Z,73.10
2019-02-22T13:26:06.475Z,72.60
2019-02-22T13:28:34.102Z,72.50
2019-02-22T13:31:01.687Z,72.60
2019-02-22T13:33:29.264Z,72.70
2019-02-22T13:35:56.876Z,72.60
2019-02-22T13:38:24.470Z,72.70
2019-02-22T13:40:52.157Z,72.20
2019-02-22T13:43:19.684Z,72.20
2019-02-22T13:45:47.265Z,72.20
2019-02-22T13:48:14.869Z,72.30
2019-02-22T13:50:42.455Z,72.00
2019-02-22T13:53:10.095Z,71.30
2019-02-22T13:55:37.683Z,71.10
2019-02-22T13:58:05.817Z,71.20
2019-02-22T14:00:33.663Z,71.00
2019-02-22T14:03:01.113Z,70.70
2019-02-22T14:05:29.310Z,70.60
2019-02-22T14:07:57.656Z,70.00
2019-02-22T14:10:25.252Z,70.00
2019-02-22T14:12:52.851Z,68.70
2019-02-22T14:15:20.462Z,68.00
2019-02-22T14:17:48.197Z,67.90
2019-02-22T14:20:16.420Z,68.60
2019-02-22T14:22:44.759Z,68.00
2019-02-22T14:25:12.341Z,68.00
2019-02-22T14:27:40.018Z,67.90
2019-02-22T14:30:07.604Z,67.70
2019-02-22T14:32:35.253Z,67.70
2019-02-22T14:35:02.826Z,67.60
2019-02-22T14:37:30.507Z,67.50
2019-02-22T14:40:03.441Z,67.90
2019-02-22T14:42:25.598Z,68.30
2019-02-22T14:44:53.958Z,69.00
2019-02-22T14:47:22.233Z,69.00
2019-02-22T14:49:49.844Z,69.20
2019-02-22T14:52:17.679Z,69.60
2019-02-22T14:54:46.053Z,69.50
2019-02-22T14:57:13.642Z,69.30
2019-02-22T14:59:41.995Z,69.60
2019-02-22T15:02:09.582Z,69.70
2019-02-22T15:04:40.192Z,70.00
2019-02-22T15:07:07.802Z,70.20
2019-02-22T15:09:35.381Z,70.80
2019-02-22T15:12:03.036Z,71.20
2019-02-22T15:14:30.619Z,71.60
2019-02-22T15:16:58.202Z,71.70
2019-02-22T15:19:26.580Z,72.10
2019-02-22T15:21:54.234Z,71.90
2019-02-22T15:24:21.835Z,71.90
2019-02-22T15:27:11.662Z,71.70
2019-02-22T15:29:33.143Z,72.00
2019-02-22T15:32:00.739Z,72.20
2019-02-22T15:34:28.327Z,73.00
2019-02-22T15:36:55.978Z,72.40
2019-02-22T15:39:23.563Z,72.60
2019-02-22T15:41:51.332Z,72.40
2019-02-22T15:44:18.898Z,72.40
2019-02-22T15:46:46.506Z,71.80
2019-02-22T15:49:14.097Z,71.20
2019-02-22T15:51:41.700Z,70.70
2019-02-22T15:54:10.042Z,70.70
2019-02-22T15:56:37.636Z,70.50
2019-02-22T15:59:05.986Z,70.30
2019-02-22T16:01:33.614Z,70.30
2019-02-22T16:04:16.100Z,70.20
2019-02-22T16:06:44.498Z,70.50
2019-02-22T16:09:12.083Z,70.50
2019-02-22T16:11:39.657Z,70.60
2019-02-22T16:14:07.479Z,71.00
2019-02-22T16:16:35.523Z,71.30
2019-02-22T16:19:04.283Z,71.90
2019-02-22T16:21:31.878Z,71.80
2019-02-22T16:24:00.219Z,71.70
2019-02-22T16:26:28.168Z,71.70
2019-02-22T16:28:55.796Z,71.60
2019-02-22T16:31:23.464Z,71.80
2019-02-22T16:33:51.042Z,71.90
2019-02-22T16:36:18.623Z,72.20
2019-02-22T16:38:46.230Z,72.40
2019-02-22T16:41:13.804Z,72.60
2019-02-22T16:43:41.422Z,72.80
2019-02-22T16:46:09.005Z,73.00
2019-02-22T16:48:36.642Z,72.70
2019-02-22T16:51:04.250Z,72.40
2019-02-22T16:53:31.854Z,72.20
2019-02-22T16:55:59.467Z,71.90
2019-02-22T16:58:27.824Z,71.90
2019-02-22T17:00:55.423Z,71.90
2019-02-22T17:03:23.037Z,72.10
2019-02-22T17:05:50.615Z,72.20
2019-02-22T17:08:18.248Z,72.20
2019-02-22T17:10:46.213Z,72.30
2019-02-22T17:13:13.793Z,72.40
2019-02-22T17:15:41.406Z,72.30
2019-02-22T17:18:17.976Z,72.40
2019-02-22T17:20:45.589Z,72.30
2019-02-22T17:23:13.166Z,72.50
2019-02-22T17:25:40.742Z,72.50
2019-02-22T17:28:09.130Z,72.50
2019-02-22T17:30:37.464Z,72.60
2019-02-22T17:33:05.089Z,72.60
2019-02-22T17:35:33.972Z,72.80
2019-02-22T17:38:01.565Z,73.00
2019-02-22T17:40:29.230Z,73.10
2019-02-22T17:42:56.815Z,73.30
2019-02-22T17:45:24.396Z,73.40
2019-02-22T17:47:52.794Z,74.20
2019-02-22T17:50:20.376Z,74.10
2019-02-22T17:52:48.102Z,73.70
2019-02-22T17:55:15.582Z,73.70
2019-02-22T17:57:43.164Z,74.00
2019-02-22T18:00:13.319Z,74.20
2019-02-22T18:02:40.982Z,74.40
2019-02-22T18:05:08.560Z,74.50
2019-02-22T18:07:36.146Z,74.70
2019-02-22T18:10:04.553Z,74.60
2019-02-22T18:12:32.132Z,74.50
2019-02-22T18:14:59.717Z,74.50
2019-02-22T18:17:27.343Z,74.80
2019-02-22T18:19:54.922Z,75.00
2019-02-22T18:22:25.891Z,75.40
2019-02-22T18:24:50.681Z,75.60
2019-02-22T18:27:18.259Z,76.00
2019-02-22T18:29:46.607Z,77.30
2019-02-22T18:32:14.299Z,77.00
2019-02-22T18:34:41.875Z,76.70
2019-02-22T18:37:10.218Z,77.10
2019-02-22T18:39:37.839Z,77.10
2019-02-22T18:42:05.433Z,77.10
2019-02-22T18:44:33.018Z,77.10
2019-02-22T18:47:00.627Z,76.70
2019-02-22T18:49:28.199Z,76.70
2019-02-22T18:51:55.850Z,77.20
2019-02-22T18:54:23.431Z,76.70
2019-02-22T18:56:51.304Z,77.10
2019-02-22T18:59:20.654Z,77.20
2019-02-22T19:01:48.305Z,78.30
2019-02-22T19:04:15.896Z,77.80
2019-02-22T19:06:43.483Z,78.10
2019-02-22T19:09:11.365Z,78.40
2019-02-22T19:11:38.962Z,78.50
2019-02-22T19:14:07.309Z,78.90
2019-02-22T19:16:34.938Z,78.90
2019-02-22T19:19:02.517Z,79.00
2019-02-22T19:21:30.097Z,79.20
2019-02-22T19:23:57.704Z,79.30
2019-02-22T19:26:26.046Z,79.60
2019-02-22T19:28:53.660Z,79.60
2019-02-22T19:31:21.243Z,79.70
2019-02-22T19:33:49.947Z,79.80
2019-02-22T19:36:16.435Z,80.00
2019-02-22T19:38:44.052Z,80.10
2019-02-22T19:41:11.681Z,80.30
2019-02-22T19:43:39.253Z,80.60
2019-02-22T19:46:06.831Z,80.90
2019-02-22T19:48:34.432Z,80.10
2019-02-22T19:51:02.034Z,80.10
2019-02-22T19:53:29.629Z,80.10
2019-02-22T19:55:57.200Z,80.20
2019-02-22T19:58:24.784Z,80.40
2019-02-22T20:00:52.391Z,80.90
2019-02-22T20:03:19.970Z,80.20
2019-02-22T20:05:47.591Z,80.30
2019-02-22T20:08:15.545Z,80.40
2019-02-22T20:10:43.119Z,80.40
2019-02-22T20:13:10.965Z,80.60
2019-02-22T20:15:39.308Z,81.10
2019-02-22T20:18:06.934Z,81.10
2019-02-22T20:20:34.515Z,81.30
2019-02-22T20:23:02.094Z,81.60
2019-02-22T20:25:29.704Z,81.90
2019-02-22T20:27:57.295Z,82.10
2019-02-22T20:30:24.929Z,81.90
2019-02-22T20:32:53.290Z,82.40
2019-02-22T20:35:27.450Z,83.40
2019-02-22T20:37:55.065Z,82.90
2019-02-22T20:40:22.676Z,83.50
2019-02-22T20:42:51.032Z,84.20
2019-02-22T20:45:18.611Z,84.20
2019-02-22T20:47:46.192Z,84.40
2019-02-22T20:50:14.367Z,84.70
2019-02-22T20:52:41.946Z,84.90
2019-02-22T20:55:09.552Z,85.30
2019-02-22T20:57:37.123Z,85.50
2019-02-22T21:00:19.499Z,85.50
2019-02-22T21:02:48.108Z,85.30
2019-02-22T21:05:15.428Z,85.30
2019-02-22T21:07:43.038Z,85.20
2019-02-22T21:10:16.412Z,85.00
2019-02-22T21:12:44.792Z,84.80
2019-02-22T21:15:13.143Z,84.60
2019-02-22T21:17:40.719Z,84.50
2019-02-22T21:20:09.088Z,83.30
2019-02-22T21:22:36.661Z,83.60
2019-02-22T21:25:05.452Z,83.50
2019-02-22T21:27:33.037Z,83.50
2019-02-22T21:30:00.632Z,83.40
2019-02-22T21:32:28.223Z,83.20
2019-02-22T21:34:55.807Z,82.90
2019-02-22T21:37:24.186Z,83.80
2019-02-22T21:39:52.530Z,82.70
2019-02-22T21:42:20.629Z,82.70
2019-02-22T21:44:48.035Z,82.50
2019-02-22T21:47:15.711Z,82.70
2019-02-22T21:49:43.344Z,82.80
2019-02-22T21:52:10.918Z,83.80
2019-02-22T21:54:38.501Z,83.30
2019-02-22T21:57:06.117Z,83.50
2019-02-22T21:59:34.458Z,83.90
2019-02-22T22:02:02.071Z,83.90
2019-02-22T22:04:29.660Z,84.20
2019-02-22T22:06:57.299Z,84.10
2019-02-22T22:09:24.866Z,84.10
2019-02-22T22:11:52.436Z,84.20
2019-02-22T22:14:20.044Z,84.20
2019-02-22T22:16:47.619Z,84.90
2019-02-22T22:19:15.270Z,85.80
2019-02-22T22:21:45.208Z,86.10
2019-02-22T22:24:10.435Z,86.10
2019-02-22T22:26:38.051Z,86.40
2019-02-22T22:29:05.630Z,86.50
2019-02-22T22:31:33.320Z,86.10
2019-02-22T22:34:01.622Z,86.10
2019-02-22T22:36:29.208Z,85.90
2019-02-22T22:38:57.046Z,86.00
2019-02-22T22:41:24.629Z,86.00
2019-02-22T22:43:52.244Z,87.20
2019-02-22T22:46:19.837Z,86.90
2019-02-22T22:48:50.457Z,87.10
2019-02-22T22:51:15.021Z,87.20
2019-02-22T22:53:42.605Z,87.60
2019-02-22T22:56:10.230Z,88.00
2019-02-22T22:58:38.153Z,88.40
2019-02-22T23:01:05.767Z,88.90
2019-02-22T23:03:34.145Z,89.90
2019-02-22T23:06:01.760Z,89.80
2019-02-22T23:08:29.373Z,90.00
2019-02-22T23:10:57.721Z,90.20
2019-02-22T23:13:25.309Z,90.10
2019-02-22T23:15:53.681Z,89.50
2019-02-22T23:18:21.259Z,89.40
2019-02-22T23:20:49.642Z,88.00
2019-02-22T23:23:18.076Z,87.70
2019-02-22T23:25:45.565Z,87.70
2019-02-22T23:28:13.475Z,87.90
2019-02-22T23:30:41.798Z,88.40
2019-02-22T23:33:09.433Z,88.30
2019-02-22T23:35:37.012Z,87.70
2019-02-22T23:38:04.602Z,87.10
2019-02-22T23:40:32.205Z,86.70
2019-02-22T23:42:59.789Z,87.20
2019-02-22T23:45:27.404Z,86.70
2019-02-22T23:47:54.995Z,86.50
2019-02-22T23:50:22.579Z,86.60
2019-02-22T23:52:50.190Z,86.90
2019-02-22T23:55:17.778Z,87.90
2019-02-22T23:57:45.393Z,88.80
